Nearby METAR Reports

 

KBMG - Bloomington, Indiana, USA
Distance from station: SSE 11mi, 18km
Updated: Tue, 07-Jul-2020 10:53am EDT
Clear
Clear
 
Temperature: 88°F , 31°C
Heat Index: 95°F , 35°C
Dew Point: 72°F , 22°C
Humidity: 59%
Barometer: 30.04 inHg , 1017.3 hPa
Clouds: Clear
Visibility: 10 miles , 16 km
2020/07/07 14:53 KBMG 071453Z 10SM CLR 31/22 A3004 RMK AO2 SLP164 T03060217 51013
KGPC - Greencastle, Indiana, USA
Distance from station: NNW 24mi, 39km
Updated: Tue, 07-Jul-2020 11:15am EDT
Mostly cloudy
Mostly cloudy
 Wind from SW
Wind: SW 6 mph , 9 km/h
Temperature: 84°F , 29°C
Heat Index: 92°F , 33°C
Dew Point: 75°F , 24°C
Humidity: 74%
Barometer: 30.04 inHg , 1017.3 hPa
Clouds: Mostly cloudy
Visibility: 10 miles , 16 km
Cloud details: Mostly cloudy 4100 ft
Mostly cloudy 4900 ft
2020/07/07 15:15 KGPC 071515Z AUTO 23005KT 10SM BKN041 BKN049 29/24 A3004 RMK AO2 T02910235
 
KHUF - Terre Haute, Indiana, USA
Distance from station: WNW 34mi, 54km
Updated: Tue, 07-Jul-2020 10:53am EDT
Clear
Clear
 Wind from calm
Wind: Calm
Temperature: 88°F , 31°C
Heat Index: 98°F , 37°C
Dew Point: 75°F , 24°C
Humidity: 66%
Barometer: 30.02 inHg , 1016.6 hPa
Clouds: Clear
Visibility: 10 miles , 16 km
2020/07/07 14:53 KHUF 071453Z 00000KT 10SM CLR 31/24 A3002 RMK AO2 SLP161 T03060239 53009
KIND - Indianapolis, Indiana, USA
Distance from station: NE 36mi, 58km
Updated: Tue, 07-Jul-2020 10:54am EDT
Few Clouds
Few Clouds
 Wind from WSW
Wind: WSW 3 mph , 6 km/h
Temperature: 86°F , 30°C
Heat Index: 93°F , 34°C
Dew Point: 73°F , 23°C
Humidity: 66%
Barometer: 30.03 inHg , 1016.9 hPa
Clouds: Few Clouds
Visibility: 10 miles , 16 km
Cloud details: Few Clouds 3000 ft
Few Clouds 15000 ft
2020/07/07 14:54 KIND 071454Z 25003KT 10SM FEW030 FEW150 30/23 A3003 RMK AO2 SLP160 ACC DSNT E T03000228 51008
 
KHFY - Indianapolis, Indiana, USA
Distance from station: NE 40mi, 65km
Updated: Tue, 07-Jul-2020 8:50am EDT
NOT Current
Clear
Clear
 Wind from WSW
Wind: WSW 5 mph , 7 km/h
Temperature: 79°F , 26°C
Dew Point: 72°F , 22°C
Humidity: 79%
Barometer: 30.03 inHg , 1016.9 hPa
Clouds: Clear
Visibility: 10 miles , 16 km
2020/07/07 12:50 KHFY 071250Z AUTO 25004KT 10SM CLR 26/22 A3003 RMK AO2 T02550220
KBAK - Columbus/Balkala, Indiana, USA
Distance from station: E 43mi, 69km
Updated: Tue, 07-Jul-2020 10:45am EDT
Clear
Clear
 Wind from calm
Wind: Calm
Temperature: 82°F , 28°C
Heat Index: 86°F , 30°C
Dew Point: 72°F , 22°C
Humidity: 70%
Barometer: 30.04 inHg , 1017.3 hPa
Clouds: Clear
Visibility: 10 miles , 16 km
2020/07/07 14:45 KBAK 071445Z 00000KT 10SM SKC 28/22 A3004
 
KEYE - Indianapolis, Indiana, USA
Distance from station: NNE 43mi, 69km
Updated: Tue, 07-Jul-2020 10:53am EDT
Clear
Clear
 Wind from NNW
Wind: NNW 3 mph , 6 km/h
Temperature: 86°F , 30°C
Heat Index: 93°F , 34°C
Dew Point: 73°F , 23°C
Humidity: 66%
Barometer: 30.02 inHg , 1016.6 hPa
Clouds: Clear
Visibility: 10 miles , 16 km
2020/07/07 14:53 KEYE 071453Z AUTO 34003KT 10SM CLR 30/23 A3002 RMK AO2 SLP158 T03000228 50008
KDCY - Daviess County, Indiana, USA
Distance from station: SSW 47mi, 76km
Updated: Tue, 07-Jul-2020 11:15am EDT
Clear
Clear
 Wind from calm
Wind: Calm
Temperature: 86°F , 30°C
Heat Index: 93°F , 34°C
Dew Point: 73°F , 23°C
Humidity: 66%
Barometer: 30.03 inHg , 1016.9 hPa
Clouds: Clear
Visibility: 10 miles , 16 km
2020/07/07 15:15 KDCY 071515Z AUTO 00000KT 10SM CLR 30/23 A3003 RMK AO2 T02950226
 
KCFJ - Crawfordsville, Indiana, USA
Distance from station: NNW 49mi, 78km
Updated: Tue, 07-Jul-2020 11:15am EDT
Clear
Clear
 Wind from calm
Wind: Calm
Temperature: 82°F , 28°C
Heat Index: 86°F , 30°C
Dew Point: 72°F , 22°C
Humidity: 70%
Barometer: 30.04 inHg , 1017.3 hPa
Clouds: Clear
Visibility: 10 miles , 16 km
2020/07/07 15:15 KCFJ 071515Z AUTO 00000KT 10SM CLR 28/22 A3004 RMK AO2 T02820223